Time;durP1;ratioP1;P1;durP2;ratioP2;P2;SDS_P1;SDS_P2;PMS_P1;PMS_P2;Temp;Humidity;BMP_temperature;BMP_pressure;BME280_temperature;BME280_humidity;BME280_pressure;Samples;Min_cycle;Max_cycle;Signal;HPM_P1;HPM_P2
2021/05/25 00:00:30;;;;;;;1.50;0.80;;;9.90;99.90;;;;;;5012447;28;20398;-80
2021/05/25 00:02:57;;;;;;;2.15;0.73;;;9.80;99.90;;;;;;5012380;28;20098;-80
2021/05/25 00:05:25;;;;;;;2.03;0.80;;;9.90;99.90;;;;;;5012296;28;20456;-81
2021/05/25 00:07:50;;;;;;;2.05;0.63;;;9.90;99.90;;;;;;5013603;28;20030;-80
2021/05/25 00:10:16;;;;;;;1.73;0.60;;;10.00;99.90;;;;;;5012315;28;20032;-80
2021/05/25 00:12:42;;;;;;;3.72;0.60;;;10.10;99.90;;;;;;5012226;28;20497;-80
2021/05/25 00:15:15;;;;;;;4.10;0.85;;;10.10;99.90;;;;;;5013385;28;20524;-80
2021/05/25 00:17:41;;;;;;;2.33;0.70;;;10.20;99.90;;;;;;5013454;28;20477;-81
2021/05/25 00:20:09;;;;;;;2.40;0.95;;;10.10;99.90;;;;;;5012137;28;20045;-80
2021/05/25 00:22:35;;;;;;;1.83;0.80;;;10.20;99.90;;;;;;5012095;28;20033;-81
2021/05/25 00:25:01;;;;;;;2.83;0.60;;;10.10;99.90;;;;;;5012121;28;20494;-81
2021/05/25 00:27:27;;;;;;;3.40;0.73;;;10.20;99.90;;;;;;5012193;28;20018;-80
2021/05/25 00:29:52;;;;;;;1.35;0.68;;;10.10;99.90;;;;;;5012129;28;20030;-80
2021/05/25 00:32:18;;;;;;;2.55;0.70;;;10.10;99.90;;;;;;5012105;28;20044;-80
2021/05/25 00:34:44;;;;;;;3.15;0.70;;;9.90;99.90;;;;;;5013399;28;20080;-80
2021/05/25 00:37:10;;;;;;;4.72;0.80;;;10.00;99.90;;;;;;5014356;28;20033;-80
2021/05/25 00:39:36;;;;;;;2.72;0.90;;;9.90;99.90;;;;;;5017348;28;20037;-80
2021/05/25 00:42:02;;;;;;;3.47;0.90;;;9.80;99.90;;;;;;5017568;28;20020;-80
2021/05/25 00:44:28;;;;;;;3.40;1.20;;;9.80;99.90;;;;;;5015963;28;20076;-80
2021/05/25 00:46:53;;;;;;;2.70;0.80;;;9.90;99.90;;;;;;5015805;28;20034;-80
2021/05/25 00:49:19;;;;;;;4.30;0.80;;;9.80;99.90;;;;;;5017353;28;20026;-80
2021/05/25 00:51:46;;;;;;;4.40;0.85;;;9.70;99.90;;;;;;5015610;28;20049;-80
2021/05/25 00:54:12;;;;;;;4.13;0.77;;;9.70;99.90;;;;;;5017023;28;20030;-80
2021/05/25 00:56:37;;;;;;;2.78;1.10;;;9.60;99.90;;;;;;5016898;28;20359;-80
2021/05/25 00:59:03;;;;;;;5.35;0.70;;;9.60;99.90;;;;;;5015847;28;20141;-80
2021/05/25 01:01:29;;;;;;;3.70;0.82;;;9.80;99.90;;;;;;5015614;28;20021;-80
2021/05/25 01:03:55;;;;;;;2.90;0.90;;;9.70;99.90;;;;;;5016852;28;20045;-80
2021/05/25 01:06:21;;;;;;;3.55;0.70;;;9.90;99.90;;;;;;5015530;28;20545;-79
2021/05/25 01:08:47;;;;;;;1.17;0.70;;;9.90;99.90;;;;;;5015435;28;20057;-80
2021/05/25 01:11:15;;;;;;;2.67;0.90;;;9.90;99.90;;;;;;5016966;28;20030;-79
2021/05/25 01:16:07;;;;;;;3.20;0.70;;;9.90;99.90;;;;;;5016845;28;20103;-80
2021/05/25 01:18:33;;;;;;;3.28;0.90;;;9.80;99.90;;;;;;5015301;28;20501;-79
2021/05/25 01:20:59;;;;;;;3.75;0.88;;;9.70;99.90;;;;;;5016777;28;20378;-79
2021/05/25 01:23:25;;;;;;;4.30;1.00;;;9.80;99.90;;;;;;5015225;28;20022;-80
2021/05/25 01:25:51;;;;;;;4.13;0.90;;;9.70;99.90;;;;;;5015135;28;20030;-80
2021/05/25 01:28:20;;;;;;;2.80;0.80;;;9.80;99.90;;;;;;5015128;28;20026;-79
2021/05/25 01:30:49;;;;;;;4.03;0.70;;;9.50;99.90;;;;;;5015040;28;20130;-79
2021/05/25 01:33:17;;;;;;;4.70;1.08;;;9.40;99.90;;;;;;5015002;28;20026;-80
2021/05/25 01:35:42;;;;;;;2.15;0.80;;;9.50;99.90;;;;;;5016203;28;20030;-80
2021/05/25 01:38:10;;;;;;;2.33;0.70;;;9.50;99.90;;;;;;5016193;28;20363;-79
2021/05/25 01:40:37;;;;;;;2.17;0.70;;;9.20;99.90;;;;;;5014879;28;20029;-80
2021/05/25 01:43:03;;;;;;;2.88;0.85;;;9.30;99.90;;;;;;5016091;28;20053;-80
2021/05/25 01:45:31;;;;;;;2.78;0.88;;;9.30;99.90;;;;;;5014797;28;20030;-79
2021/05/25 01:47:59;;;;;;;6.03;1.13;;;9.10;99.90;;;;;;5014403;28;20029;-79
2021/05/25 01:50:27;;;;;;;9.35;1.27;;;9.10;99.90;;;;;;5022438;28;20396;-80
2021/05/25 01:53:02;;;;;;;2.28;0.90;;;9.00;99.90;;;;;;5055666;28;20029;-79
2021/05/25 01:55:41;;;;;;;4.22;0.80;;;9.10;99.90;;;;;;5037716;28;20028;-79
2021/05/25 01:58:12;;;;;;;3.78;1.05;;;9.10;99.90;;;;;;5055882;28;20463;-79
2021/05/25 02:00:40;;;;;;;2.63;0.88;;;9.00;99.90;;;;;;5037600;28;20021;-79
2021/05/25 02:03:07;;;;;;;2.15;0.70;;;9.00;99.90;;;;;;5037486;28;20025;-79
2021/05/25 02:05:34;;;;;;;3.97;0.85;;;9.00;99.90;;;;;;5037459;28;20403;-79
2021/05/25 02:08:02;;;;;;;1.92;0.95;;;8.90;99.90;;;;;;5055667;28;20025;-79
2021/05/25 02:10:30;;;;;;;3.22;1.13;;;9.10;99.90;;;;;;5037459;28;20505;-79
2021/05/25 02:13:12;;;;;;;3.17;0.90;;;9.10;99.90;;;;;;5037381;28;20102;-79
2021/05/25 02:15:39;;;;;;;7.72;1.35;;;8.80;99.90;;;;;;5055160;28;20476;-79
2021/05/25 02:18:10;;;;;;;8.65;1.25;;;9.00;99.90;;;;;;5055128;28;20017;-79
2021/05/25 02:20:37;;;;;;;2.80;0.80;;;9.20;99.90;;;;;;5055456;28;20456;-80
2021/05/25 02:23:03;;;;;;;3.10;0.75;;;9.10;99.90;;;;;;5055352;28;20103;-80
2021/05/25 02:25:30;;;;;;;4.53;0.75;;;9.00;99.90;;;;;;5055096;28;20064;-79
2021/05/25 02:27:56;;;;;;;3.33;1.20;;;8.80;99.90;;;;;;5037162;28;20025;-80
2021/05/25 02:30:22;;;;;;;3.65;0.70;;;8.70;99.90;;;;;;5054960;28;20071;-79
2021/05/25 02:32:49;;;;;;;4.72;1.15;;;8.70;99.90;;;;;;5037039;28;20055;-79
2021/05/25 02:35:15;;;;;;;3.15;0.95;;;8.50;99.90;;;;;;5036901;28;20060;-79
2021/05/25 02:37:41;;;;;;;3.67;1.20;;;8.60;99.90;;;;;;5054832;28;20025;-80
2021/05/25 02:40:08;;;;;;;2.30;0.70;;;8.70;99.90;;;;;;5054730;28;20370;-80
2021/05/25 02:42:34;;;;;;;5.65;1.10;;;8.90;99.90;;;;;;5054703;28;20033;-78
2021/05/25 02:45:01;;;;;;;4.53;0.95;;;9.10;99.90;;;;;;5036795;28;20032;-80
2021/05/25 02:47:27;;;;;;;3.20;0.98;;;8.90;99.90;;;;;;5054878;28;20024;-79
2021/05/25 02:49:53;;;;;;;5.07;0.98;;;8.70;99.90;;;;;;5036710;28;20025;-80
2021/05/25 02:52:19;;;;;;;2.10;0.73;;;8.80;99.90;;;;;;5014361;28;20509;-79
2021/05/25 02:54:44;;;;;;;6.43;1.10;;;8.80;99.90;;;;;;5014789;28;20387;-80
2021/05/25 02:57:10;;;;;;;5.55;1.65;;;8.60;99.90;;;;;;5014668;28;20026;-79
2021/05/25 02:59:36;;;;;;;2.72;0.80;;;8.90;99.90;;;;;;5012766;28;20386;-80
2021/05/25 03:02:02;;;;;;;3.40;1.02;;;9.30;99.90;;;;;;5013410;28;20044;-80
2021/05/25 03:04:28;;;;;;;5.13;1.00;;;9.20;99.90;;;;;;5013321;28;20029;-79
2021/05/25 03:06:55;;;;;;;4.20;0.90;;;8.90;99.90;;;;;;5014568;28;20025;-80
2021/05/25 03:09:21;;;;;;;2.15;0.73;;;9.10;99.90;;;;;;5014845;28;20053;-79
2021/05/25 03:11:47;;;;;;;3.63;0.82;;;8.90;99.90;;;;;;5013249;28;20064;-79
2021/05/25 03:14:13;;;;;;;7.20;1.05;;;8.90;99.90;;;;;;5013144;28;20107;-78
2021/05/25 03:16:38;;;;;;;2.17;0.63;;;8.70;99.90;;;;;;5013069;28;20030;-80
2021/05/25 03:19:04;;;;;;;1.70;0.60;;;8.80;99.90;;;;;;5013128;28;20585;-79
2021/05/25 03:21:30;;;;;;;4.07;1.10;;;8.70;99.90;;;;;;5013086;28;20520;-79
2021/05/25 03:23:56;;;;;;;4.50;0.60;;;8.90;99.90;;;;;;5012948;28;20058;-79
2021/05/25 03:26:22;;;;;;;3.75;0.70;;;8.70;99.90;;;;;;5012942;28;20022;-78
2021/05/25 03:28:48;;;;;;;3.38;0.65;;;9.00;99.90;;;;;;5012939;28;20026;-79
2021/05/25 03:31:14;;;;;;;4.45;1.20;;;8.30;99.90;;;;;;5012856;28;20034;-79
2021/05/25 03:33:40;;;;;;;6.50;1.00;;;8.40;99.90;;;;;;5014129;28;20030;-79
2021/05/25 03:36:07;;;;;;;2.28;0.77;;;8.60;99.90;;;;;;5012776;28;20053;-80
2021/05/25 03:38:32;;;;;;;4.95;0.98;;;8.80;99.90;;;;;;5014075;28;20387;-80
2021/05/25 03:40:58;;;;;;;2.72;0.90;;;8.80;99.90;;;;;;5012744;28;20021;-80
2021/05/25 03:43:24;;;;;;;4.93;0.70;;;8.60;99.90;;;;;;5012722;28;20022;-80
2021/05/25 03:45:49;;;;;;;3.03;0.50;;;8.50;99.90;;;;;;5013928;28;20034;-80
2021/05/25 03:48:17;;;;;;;3.10;0.93;;;8.50;99.90;;;;;;5012694;28;20022;-79
2021/05/25 03:50:43;;;;;;;2.13;0.70;;;8.40;99.90;;;;;;5025129;28;20033;-79
2021/05/25 03:53:09;;;;;;;3.67;0.77;;;8.10;99.90;;;;;;5053509;28;20021;-80
2021/05/25 03:55:50;;;;;;;3.80;0.90;;;8.10;99.90;;;;;;5053349;28;20044;-80
2021/05/25 04:01:00;;;;;;;3.08;0.90;;;8.40;99.90;;;;;;5054007;28;20040;-79
2021/05/25 04:03:27;;;;;;;2.20;0.57;;;8.40;99.90;;;;;;5035465;28;20392;-80
2021/05/25 04:05:53;;;;;;;6.18;1.60;;;8.20;99.90;;;;;;5035485;28;20484;-79
2021/05/25 04:08:19;;;;;;;4.25;0.95;;;8.10;99.90;;;;;;5053281;28;20029;-80
2021/05/25 04:10:46;;;;;;;1.85;0.70;;;8.00;99.90;;;;;;5053411;28;20021;-79
2021/05/25 04:13:13;;;;;;;3.88;1.58;;;7.80;99.90;;;;;;5035378;28;20025;-79
2021/05/25 04:15:50;;;;;;;4.50;0.80;;;8.00;99.90;;;;;;5035152;28;20075;-79
2021/05/25 04:18:16;;;;;;;2.38;0.80;;;8.10;99.90;;;;;;5053163;28;20028;-79
2021/05/25 04:20:42;;;;;;;4.07;0.90;;;8.10;99.90;;;;;;5035284;28;20476;-78
2021/05/25 04:23:08;;;;;;;2.80;0.70;;;8.40;99.90;;;;;;5053117;28;20049;-79
2021/05/25 04:25:34;;;;;;;2.72;0.65;;;8.50;99.90;;;;;;5035228;28;20025;-79
2021/05/25 04:28:00;;;;;;;1.88;0.50;;;8.40;99.90;;;;;;5053035;28;20079;-79
2021/05/25 04:30:26;;;;;;;2.40;0.55;;;8.40;99.90;;;;;;5035239;28;20052;-79
2021/05/25 04:32:52;;;;;;;1.92;0.47;;;8.50;99.90;;;;;;5035225;28;20037;-79
2021/05/25 04:35:19;;;;;;;1.80;0.70;;;8.60;99.90;;;;;;5035064;28;20048;-79
2021/05/25 04:37:45;;;;;;;1.45;0.60;;;8.80;99.90;;;;;;5035079;28;20028;-79
2021/05/25 04:40:11;;;;;;;1.67;0.47;;;8.50;99.90;;;;;;5052992;28;20025;-78
2021/05/25 04:42:38;;;;;;;2.30;0.68;;;8.40;99.90;;;;;;5052989;28;20027;-79
2021/05/25 04:45:05;;;;;;;2.20;0.52;;;8.50;99.90;;;;;;5052915;28;20037;-79
2021/05/25 04:47:31;;;;;;;3.42;0.80;;;8.60;99.90;;;;;;5052791;28;20025;-78
2021/05/25 04:49:56;;;;;;;2.85;0.88;;;8.70;99.90;;;;;;5052908;28;20107;-79
2021/05/25 04:52:22;;;;;;;2.97;0.70;;;8.80;99.90;;;;;;5034804;28;20041;-79
2021/05/25 04:54:48;;;;;;;1.63;0.52;;;8.90;99.90;;;;;;5035002;28;20374;-79
2021/05/25 04:57:14;;;;;;;2.05;0.60;;;9.00;99.90;;;;;;5052718;28;20025;-79
2021/05/25 04:59:40;;;;;;;1.92;0.55;;;8.90;99.90;;;;;;5034902;28;20025;-78
2021/05/25 05:02:06;;;;;;;5.70;0.50;;;8.90;99.90;;;;;;5034851;28;20028;-78
2021/05/25 05:04:31;;;;;;;0.60;0.40;;;9.00;99.90;;;;;;5034855;28;20071;-78
2021/05/25 05:06:57;;;;;;;0.65;0.40;;;8.60;99.90;;;;;;5052688;28;20029;-79
2021/05/25 05:09:23;;;;;;;2.08;0.57;;;8.70;99.90;;;;;;5034785;28;20033;-78
2021/05/25 05:11:49;;;;;;;3.38;0.85;;;8.90;99.90;;;;;;5052466;28;20021;-78
2021/05/25 05:14:14;;;;;;;2.88;0.60;;;8.90;99.90;;;;;;5052630;28;20021;-79
2021/05/25 05:16:40;;;;;;;0.90;0.60;;;8.80;99.90;;;;;;5034754;28;20040;-79
2021/05/25 05:19:06;;;;;;;2.63;1.00;;;8.80;99.90;;;;;;5034781;28;20025;-79
2021/05/25 05:21:31;;;;;;;5.32;0.60;;;8.90;99.90;;;;;;5034731;28;20021;-79
2021/05/25 05:23:57;;;;;;;1.00;0.40;;;9.10;99.90;;;;;;5038027;28;20029;-77
2021/05/25 05:26:23;;;;;;;2.88;0.63;;;9.00;99.90;;;;;;5056525;28;20060;-78
2021/05/25 05:28:49;;;;;;;4.63;0.85;;;8.90;99.90;;;;;;5056411;28;20358;-80
2021/05/25 05:31:14;;;;;;;2.30;0.63;;;9.20;99.90;;;;;;5056124;28;20399;-78
2021/05/25 05:33:40;;;;;;;2.63;0.60;;;9.10;99.90;;;;;;5056032;28;20036;-80
2021/05/25 05:36:06;;;;;;;4.35;0.70;;;8.90;99.90;;;;;;5055961;28;20029;-80
2021/05/25 05:38:32;;;;;;;1.63;0.63;;;9.00;99.90;;;;;;5038095;28;20021;-78
2021/05/25 05:41:04;;;;;;;3.17;0.73;;;9.00;99.90;;;;;;5056274;28;20021;-79
2021/05/25 05:43:32;;;;;;;3.00;0.95;;;8.90;99.90;;;;;;5038080;28;20158;-78
2021/05/25 05:45:59;;;;;;;1.55;0.65;;;9.10;99.90;;;;;;5055651;28;20088;-78
2021/05/25 05:48:28;;;;;;;3.25;0.77;;;9.10;99.90;;;;;;5056140;28;20029;-80
2021/05/25 05:50:55;;;;;;;4.53;0.73;;;9.10;99.90;;;;;;5055508;28;20051;-79
2021/05/25 05:53:21;;;;;;;3.50;1.02;;;9.20;99.90;;;;;;5055711;28;20033;-78
2021/05/25 05:55:47;;;;;;;1.70;0.55;;;9.20;99.90;;;;;;5037702;28;20544;-79
2021/05/25 05:58:13;;;;;;;2.20;0.73;;;9.30;99.90;;;;;;5055881;28;20027;-79
2021/05/25 06:00:41;;;;;;;1.25;0.50;;;9.50;99.90;;;;;;5037713;28;20052;-79
2021/05/25 06:03:08;;;;;;;5.13;1.02;;;9.70;99.90;;;;;;5037596;28;20060;-78
2021/05/25 06:05:35;;;;;;;3.50;0.68;;;9.40;99.90;;;;;;5037551;28;20037;-77
2021/05/25 06:08:02;;;;;;;1.50;0.60;;;9.50;99.90;;;;;;5037580;28;20037;-79
2021/05/25 06:10:30;;;;;;;2.92;0.80;;;9.60;99.90;;;;;;5055377;28;20392;-78
2021/05/25 06:12:55;;;;;;;5.53;0.70;;;9.60;99.90;;;;;;5037380;28;20036;-80
2021/05/25 06:15:21;;;;;;;4.28;0.60;;;9.50;99.90;;;;;;5055182;28;20029;-79
2021/05/25 06:17:47;;;;;;;1.27;0.43;;;9.60;99.90;;;;;;5055209;28;20052;-79
2021/05/25 06:20:13;;;;;;;1.58;0.55;;;9.60;99.90;;;;;;5037327;28;20156;-78
2021/05/25 06:22:39;;;;;;;19.80;1.25;;;9.70;99.90;;;;;;5037278;28;20388;-78
2021/05/25 06:25:06;;;;;;;2.55;0.50;;;9.80;99.90;;;;;;5037266;28;20025;-79
2021/05/25 06:27:32;;;;;;;1.90;0.55;;;9.80;99.90;;;;;;5037176;28;20078;-81
2021/05/25 06:29:58;;;;;;;4.40;0.70;;;9.90;99.90;;;;;;5037068;28;20105;-80
2021/05/25 06:32:24;;;;;;;1.77;0.50;;;10.00;99.90;;;;;;5037057;28;20071;-80
2021/05/25 06:34:51;;;;;;;0.73;0.32;;;10.10;99.90;;;;;;5036045;28;20021;-80
2021/05/25 06:37:17;;;;;;;3.60;0.98;;;10.20;99.90;;;;;;5055055;28;20479;-80
2021/05/25 06:39:43;;;;;;;4.50;0.60;;;10.40;99.90;;;;;;5036933;28;20029;-81
2021/05/25 06:42:10;;;;;;;3.95;0.45;;;10.50;99.90;;;;;;5054789;28;20047;-80
2021/05/25 06:44:36;;;;;;;3.95;0.88;;;10.60;99.90;;;;;;5036887;28;20029;-80
2021/05/25 06:47:02;;;;;;;3.70;0.77;;;10.50;99.90;;;;;;5054608;28;20040;-80
2021/05/25 06:49:27;;;;;;;6.40;0.82;;;10.60;99.90;;;;;;5036738;28;20032;-80
2021/05/25 06:51:53;;;;;;;3.47;0.75;;;10.60;99.90;;;;;;5017970;28;20049;-80
2021/05/25 06:54:19;;;;;;;3.55;0.60;;;10.50;99.90;;;;;;5013555;28;20022;-80
2021/05/25 06:56:45;;;;;;;4.55;0.68;;;10.50;99.90;;;;;;5015275;28;20125;-81
2021/05/25 06:59:11;;;;;;;4.00;0.75;;;10.60;99.90;;;;;;5013490;28;20129;-83
2021/05/25 07:01:37;;;;;;;3.15;0.70;;;10.60;99.90;;;;;;5013413;28;20067;-82
2021/05/25 07:04:03;;;;;;;1.73;0.50;;;10.50;99.90;;;;;;5013422;28;20112;-81
2021/05/25 07:06:29;;;;;;;2.60;0.60;;;10.50;99.90;;;;;;5014654;28;20486;-81
2021/05/25 07:08:54;;;;;;;1.65;0.60;;;10.40;99.90;;;;;;5013334;28;20030;-81
2021/05/25 07:11:21;;;;;;;2.10;0.63;;;10.50;99.90;;;;;;5013333;28;20026;-80
2021/05/25 07:13:47;;;;;;;8.25;0.70;;;10.60;99.90;;;;;;5013225;28;20036;-81
2021/05/25 07:16:14;;;;;;;0.90;0.47;;;10.70;99.90;;;;;;5014423;28;20062;-80
2021/05/25 07:18:40;;;;;;;1.33;0.43;;;10.80;99.90;;;;;;5013176;28;20018;-79
2021/05/25 07:21:06;;;;;;;5.93;0.82;;;10.90;99.90;;;;;;5013212;28;20037;-79
2021/05/25 07:23:33;;;;;;;3.83;0.73;;;10.80;99.90;;;;;;5013033;28;20116;-80
2021/05/25 07:25:58;;;;;;;2.60;0.57;;;10.80;99.90;;;;;;5013011;28;20036;-81
2021/05/25 07:28:24;;;;;;;3.38;0.77;;;11.00;99.90;;;;;;5014520;28;20022;-81
2021/05/25 07:30:50;;;;;;;2.30;0.70;;;10.90;99.90;;;;;;5014493;28;20531;-81
2021/05/25 07:33:16;;;;;;;4.32;0.80;;;11.10;99.90;;;;;;5012917;28;20053;-79
2021/05/25 07:35:41;;;;;;;2.08;0.70;;;11.40;99.90;;;;;;5014053;28;20030;-81
2021/05/25 07:38:07;;;;;;;1.90;0.68;;;11.60;99.90;;;;;;5012904;28;20029;-80
2021/05/25 07:40:33;;;;;;;4.88;0.70;;;11.60;99.90;;;;;;5012809;28;20414;-80
2021/05/25 07:43:00;;;;;;;5.38;0.77;;;11.50;99.90;;;;;;5012741;28;20452;-80
2021/05/25 07:45:26;;;;;;;5.22;0.80;;;11.60;99.90;;;;;;5012436;28;20022;-79
2021/05/25 07:47:52;;;;;;;3.88;1.00;;;11.80;99.90;;;;;;5012589;28;20371;-80
2021/05/25 07:50:18;;;;;;;4.03;0.80;;;11.80;99.90;;;;;;5016934;28;20454;-80
2021/05/25 07:52:46;;;;;;;2.80;0.70;;;11.80;99.90;;;;;;5036269;28;20174;-79
2021/05/25 07:55:13;;;;;;;6.13;0.90;;;12.00;99.90;;;;;;5036702;28;20031;-80
2021/05/25 07:57:40;;;;;;;4.30;0.73;;;12.10;99.90;;;;;;5053365;28;20017;-81
2021/05/25 08:00:07;;;;;;;4.38;0.90;;;12.40;99.90;;;;;;5035514;28;20025;-80
2021/05/25 08:02:33;;;;;;;4.68;0.90;;;12.10;99.90;;;;;;5053303;28;20017;-81
2021/05/25 08:04:59;;;;;;;3.03;0.68;;;11.80;99.90;;;;;;5053333;28;20109;-79
2021/05/25 08:07:24;;;;;;;3.45;0.68;;;11.80;99.90;;;;;;5035707;28;20024;-80
2021/05/25 08:09:50;;;;;;;4.38;1.00;;;11.80;99.90;;;;;;5035433;28;20025;-81
2021/05/25 08:12:16;;;;;;;4.20;0.70;;;11.80;99.90;;;;;;5035424;28;20123;-80
2021/05/25 08:14:42;;;;;;;3.05;0.50;;;12.00;99.90;;;;;;5035392;28;20064;-81
2021/05/25 08:17:35;;;;;;;5.13;0.90;;;12.20;99.90;;;;;;5035234;28;20044;-80
2021/05/25 08:22:42;;;;;;;2.92;0.73;;;12.40;99.90;;;;;;5053202;28;20075;-80
2021/05/25 08:25:08;;;;;;;5.95;0.98;;;12.10;99.90;;;;;;5053086;28;20032;-79
2021/05/25 08:27:34;;;;;;;2.67;0.57;;;12.20;99.90;;;;;;5035160;28;20033;-80
2021/05/25 08:30:01;;;;;;;3.10;0.65;;;12.00;99.90;;;;;;5035249;28;20032;-79
2021/05/25 08:32:27;;;;;;;5.13;0.80;;;11.80;99.90;;;;;;5035189;28;20029;-79
2021/05/25 08:34:53;;;;;;;5.65;1.02;;;11.70;99.90;;;;;;5053036;28;20505;-80
2021/05/25 08:37:19;;;;;;;2.53;0.80;;;11.90;99.90;;;;;;5035006;28;20120;-79
2021/05/25 08:39:45;;;;;;;2.78;0.80;;;12.20;99.90;;;;;;5035184;28;20120;-81
2021/05/25 08:42:12;;;;;;;3.03;0.73;;;12.50;99.90;;;;;;5035364;28;20033;-83
2021/05/25 08:44:38;;;;;;;3.33;0.50;;;12.40;99.90;;;;;;5052925;28;20066;-79
2021/05/25 08:47:06;;;;;;;2.33;0.65;;;12.40;99.90;;;;;;5034986;28;20494;-80
2021/05/25 08:49:34;;;;;;;2.13;0.55;;;12.70;99.90;;;;;;5052938;28;20098;-80
2021/05/25 08:52:02;;;;;;;2.65;0.70;;;12.80;99.90;;;;;;5015409;28;20045;-82
2021/05/25 08:54:29;;;;;;;5.22;1.23;;;12.60;99.90;;;;;;5011963;28;20076;-80
2021/05/25 08:56:55;;;;;;;5.55;1.10;;;12.60;99.90;;;;;;5012116;28;20041;-81
2021/05/25 08:59:21;;;;;;;2.88;1.27;;;12.50;99.90;;;;;;5017280;28;20026;-79
2021/05/25 09:01:48;;;;;;;3.17;0.73;;;12.60;99.90;;;;;;5016981;28;20022;-83
2021/05/25 09:04:15;;;;;;;2.55;1.20;;;12.30;99.90;;;;;;5015674;28;20033;-80
2021/05/25 09:06:42;;;;;;;1.95;0.90;;;12.20;99.90;;;;;;5016915;28;20104;-79
2021/05/25 09:09:13;;;;;;;6.88;1.60;;;12.30;99.90;;;;;;5017096;28;20036;-82
2021/05/25 09:12:03;;;;;;;4.55;1.13;;;12.40;99.90;;;;;;5015591;28;20429;-79
2021/05/25 09:14:32;;;;;;;6.07;0.98;;;12.10;99.90;;;;;;5015543;28;20022;-78
2021/05/25 09:17:18;;;;;;;3.13;0.85;;;12.20;99.90;;;;;;5015346;28;20030;-80
2021/05/25 09:19:50;;;;;;;6.05;0.80;;;12.40;99.90;;;;;;5015403;28;20032;-79
2021/05/25 09:22:36;;;;;;;6.72;0.82;;;12.20;99.90;;;;;;5015427;28;20018;-79
2021/05/25 09:25:19;;;;;;;4.03;0.98;;;12.20;99.90;;;;;;5016901;28;20412;-78
2021/05/25 09:27:56;;;;;;;3.28;0.90;;;12.60;99.90;;;;;;5016862;28;20022;-79
2021/05/25 09:30:25;;;;;;;4.60;0.95;;;12.60;99.90;;;;;;5017017;28;20033;-79
2021/05/25 09:32:58;;;;;;;5.25;1.10;;;12.50;99.90;;;;;;5015186;28;20018;-80
2021/05/25 09:35:31;;;;;;;6.82;0.68;;;12.40;99.90;;;;;;5015088;28;20022;-80
2021/05/25 09:38:00;;;;;;;5.25;1.33;;;12.50;99.90;;;;;;5015067;28;20117;-81
2021/05/25 09:40:32;;;;;;;4.15;1.13;;;12.20;99.90;;;;;;5014982;28;20036;-79
2021/05/25 09:43:16;;;;;;;4.97;0.95;;;12.20;99.90;;;;;;5015489;28;20025;-80
2021/05/25 09:46:04;;;;;;;1.88;0.63;;;12.70;99.90;;;;;;5016150;28;20497;-80
2021/05/25 09:48:33;;;;;;;3.40;0.90;;;12.70;99.90;;;;;;5016257;28;20030;-78
2021/05/25 09:51:02;;;;;;;4.40;0.93;;;12.40;99.90;;;;;;5014660;28;20449;-79
2021/05/25 09:53:30;;;;;;;4.75;0.90;;;12.80;99.90;;;;;;5016102;28;20026;-79
2021/05/25 09:55:58;;;;;;;7.72;1.02;;;12.70;99.90;;;;;;5014641;28;20029;-79
2021/05/25 09:58:33;;;;;;;4.10;0.77;;;13.30;99.90;;;;;;5014582;28;20091;-79
2021/05/25 10:01:03;;;;;;;5.10;0.90;;;13.80;99.90;;;;;;5014510;28;20026;-79
2021/05/25 10:03:31;;;;;;;6.07;0.85;;;13.80;99.90;;;;;;5015863;28;20366;-80
2021/05/25 10:06:01;;;;;;;4.90;1.08;;;13.70;99.90;;;;;;5016342;28;20022;-80
2021/05/25 10:08:29;;;;;;;5.35;0.85;;;13.80;99.90;;;;;;5015833;28;20113;-80
2021/05/25 10:10:57;;;;;;;4.68;1.00;;;14.10;99.90;;;;;;5014439;28;20402;-79
2021/05/25 10:13:25;;;;;;;5.03;0.82;;;14.20;99.90;;;;;;5015701;28;20076;-79
2021/05/25 10:15:51;;;;;;;4.63;0.80;;;14.40;99.90;;;;;;5015521;28;20022;-79
2021/05/25 10:21:01;;;;;;;3.17;1.02;;;14.10;99.90;;;;;;5016089;28;20108;-79
2021/05/25 10:23:32;;;;;;;2.30;0.70;;;13.80;99.90;;;;;;5015686;28;20029;-79
2021/05/25 10:26:00;;;;;;;3.97;1.00;;;13.60;99.90;;;;;;5014215;28;20025;-78
2021/05/25 10:28:26;;;;;;;4.82;0.88;;;13.60;99.90;;;;;;5014130;28;20033;-83
2021/05/25 10:30:52;;;;;;;2.15;0.68;;;13.30;99.90;;;;;;5015588;28;20030;-80
2021/05/25 10:33:19;;;;;;;3.65;0.90;;;13.00;99.90;;;;;;5014007;28;20030;-80
2021/05/25 10:35:51;;;;;;;2.03;0.77;;;12.80;99.90;;;;;;5013902;28;20030;-78
2021/05/25 10:38:20;;;;;;;4.97;1.40;;;12.80;99.90;;;;;;5015202;28;20452;-79
2021/05/25 10:40:49;;;;;;;3.45;0.68;;;13.10;99.90;;;;;;5013889;28;20029;-79
2021/05/25 10:43:42;;;;;;;5.88;0.85;;;13.30;99.90;;;;;;5015074;28;20029;-80
2021/05/25 10:46:10;;;;;;;3.35;0.80;;;13.40;99.90;;;;;;5015042;28;20424;-79
2021/05/25 10:49:13;;;;;;;3.35;0.73;;;13.40;99.90;;;;;;5013965;28;20500;-79
2021/05/25 10:51:48;;;;;;;3.38;0.93;;;13.30;99.90;;;;;;5041291;28;20119;-78
2021/05/25 10:54:21;;;;;;;3.85;0.85;;;13.20;99.90;;;;;;5054516;28;20033;-79
2021/05/25 10:56:47;;;;;;;3.38;0.77;;;13.10;99.90;;;;;;5036512;28;20460;-79
2021/05/25 10:59:14;;;;;;;3.47;1.00;;;13.10;99.90;;;;;;5054515;28;20021;-79
2021/05/25 11:01:41;;;;;;;3.03;0.90;;;13.00;99.90;;;;;;5036527;28;20497;-79
2021/05/25 11:04:08;;;;;;;8.38;1.23;;;13.10;99.90;;;;;;5036466;28;20021;-79
2021/05/25 11:06:34;;;;;;;4.75;0.80;;;12.90;99.90;;;;;;5036439;28;20443;-80
2021/05/25 11:09:19;;;;;;;3.42;0.88;;;13.40;99.90;;;;;;5036390;28;20024;-80
2021/05/25 11:11:45;;;;;;;2.80;0.60;;;14.10;99.90;;;;;;5054234;28;20095;-80
2021/05/25 11:14:14;;;;;;;3.97;0.88;;;13.60;99.90;;;;;;5054184;28;20083;-80
2021/05/25 11:16:40;;;;;;;2.80;0.70;;;14.10;99.90;;;;;;5054053;28;20430;-80
2021/05/25 11:19:07;;;;;;;5.10;1.20;;;14.80;99.90;;;;;;5036247;28;20392;-82
2021/05/25 11:24:39;;;;;;;4.85;0.90;;;14.30;99.90;;;;;;5054320;28;20025;-79
2021/05/25 11:27:11;;;;;;;6.22;1.70;;;13.50;99.90;;;;;;5036084;28;20052;-79
2021/05/25 11:29:53;;;;;;;5.72;1.25;;;13.10;99.90;;;;;;5053863;28;20025;-79
2021/05/25 11:32:27;;;;;;;2.05;0.68;;;12.90;99.90;;;;;;5054201;28;20043;-79
2021/05/25 11:35:02;;;;;;;3.08;0.70;;;13.30;99.90;;;;;;5054241;28;20079;-79
2021/05/25 11:37:32;;;;;;;2.67;0.60;;;13.90;99.90;;;;;;5053676;28;20025;-79
2021/05/25 11:39:57;;;;;;;3.80;0.90;;;14.70;99.90;;;;;;5036006;28;20060;-79
2021/05/25 11:42:31;;;;;;;2.55;1.13;;;15.70;99.90;;;;;;5036068;28;20057;-80
2021/05/25 11:44:57;;;;;;;8.63;1.00;;;15.50;99.90;;;;;;5036576;28;20021;-80
2021/05/25 11:47:23;;;;;;;2.55;1.00;;;14.70;99.90;;;;;;5035778;28;20079;-81
2021/05/25 11:49:49;;;;;;;6.60;0.90;;;14.90;99.90;;;;;;5035727;28;20025;-79
2021/05/25 11:52:36;;;;;;;2.75;1.05;;;15.40;99.90;;;;;;5053411;28;20072;-81
2021/05/25 11:55:10;;;;;;;3.47;0.90;;;15.60;99.90;;;;;;5035682;28;20033;-84
2021/05/25 11:57:38;;;;;;;;;;;16.10;99.90;;;;;;5053770;28;20036;-81
2021/05/25 12:00:24;;;;;;;4.05;1.27;;;15.90;99.90;;;;;;5035540;28;20075;-80
2021/05/25 12:03:01;;;;;;;3.72;0.95;;;16.60;99.90;;;;;;5035838;28;20063;-80
2021/05/25 12:05:33;;;;;;;2.72;0.90;;;17.20;97.90;;;;;;5035517;28;20029;-79
2021/05/25 12:08:01;;;;;;;3.67;0.82;;;16.70;97.40;;;;;;5035403;28;20021;-80
2021/05/25 12:10:32;;;;;;;2.97;0.60;;;15.90;98.00;;;;;;5053302;28;20025;-80
2021/05/25 12:13:09;;;;;;;5.90;1.10;;;14.80;97.60;;;;;;5035433;28;20021;-80
2021/05/25 12:15:49;;;;;;;4.07;0.90;;;14.10;98.70;;;;;;5053446;28;20017;-80
2021/05/25 12:18:20;;;;;;;3.42;0.70;;;13.80;98.70;;;;;;5053266;28;20028;-81
2021/05/25 12:20:50;;;;;;;6.63;0.90;;;13.60;99.70;;;;;;5053167;28;20029;-81
2021/05/25 12:23:21;;;;;;;3.63;1.20;;;13.60;99.90;;;;;;5035268;28;20119;-79
2021/05/25 12:25:53;;;;;;;6.05;1.35;;;13.50;99.90;;;;;;5053172;28;20085;-80
2021/05/25 12:28:21;;;;;;;3.63;0.85;;;13.40;99.90;;;;;;5035260;28;20025;-81
2021/05/25 12:30:51;;;;;;;3.83;0.80;;;13.90;99.90;;;;;;5035280;28;20032;-82
2021/05/25 12:33:22;;;;;;;5.00;0.77;;;14.50;99.90;;;;;;5037777;28;20553;-80
2021/05/25 12:35:49;;;;;;;1.15;0.47;;;14.50;99.90;;;;;;5057051;28;20107;-80
2021/05/25 12:38:17;;;;;;;4.05;0.98;;;14.50;99.90;;;;;;5039213;28;20455;-80
2021/05/25 12:41:01;;;;;;;4.70;0.90;;;15.50;99.40;;;;;;5039187;28;20175;-81
2021/05/25 12:43:33;;;;;;;4.30;0.85;;;15.70;99.00;;;;;;5057094;28;20028;-79
2021/05/25 12:46:07;;;;;;;3.03;1.10;;;15.30;98.10;;;;;;5056957;28;20025;-79
2021/05/25 12:48:43;;;;;;;5.28;0.95;;;14.40;98.50;;;;;;5057773;28;20032;-79
2021/05/25 12:51:10;;;;;;;3.28;0.73;;;15.20;98.60;;;;;;5038874;28;20128;-79
2021/05/25 12:53:56;;;;;;;6.22;0.93;;;15.40;98.70;;;;;;5022750;28;20033;-79
2021/05/25 12:56:24;;;;;;;3.78;1.20;;;14.90;98.80;;;;;;5057099;28;20057;-80
2021/05/25 12:58:51;;;;;;;6.03;0.88;;;15.10;99.30;;;;;;5056746;28;20481;-81
2021/05/25 13:01:27;;;;;;;3.40;0.77;;;15.10;98.80;;;;;;5038909;28;20431;-80
2021/05/25 13:04:07;;;;;;;2.92;0.70;;;14.90;99.00;;;;;;5056770;28;20013;-80
2021/05/25 13:06:49;;;;;;;6.68;0.70;;;15.20;99.30;;;;;;5038823;28;20545;-81
2021/05/25 13:09:20;;;;;;;5.68;1.00;;;15.90;98.00;;;;;;5038742;28;20507;-80
2021/05/25 13:12:05;;;;;;;2.30;0.70;;;15.30;98.40;;;;;;5038650;28;20116;-81